Time;durP1;ratioP1;P1;durP2;ratioP2;P2;SDS_P1;SDS_P2;PMS_P1;PMS_P2;Temp;Humidity;BMP_temperature;BMP_pressure;BME280_temperature;BME280_humidity;BME280_pressure;Samples;Min_cycle;Max_cycle;Signal;HPM_P1;HPM_P2
2023/01/03 00:01:15;;;;;;;8.00;2.38;;;4.80;90.40;;;;;;5072022;28;20047;-72
2023/01/03 00:03:40;;;;;;;6.18;1.50;;;4.80;90.30;;;;;;5071914;28;20119;-72
2023/01/03 00:06:21;;;;;;;5.32;1.77;;;4.80;90.30;;;;;;5072285;28;20136;-75
2023/01/03 00:08:48;;;;;;;6.95;1.83;;;4.90;90.40;;;;;;5071884;28;20552;-73
2023/01/03 00:12:22;;;;;;;5.63;1.75;;;4.90;90.50;;;;;;5072186;28;20405;-73
2023/01/03 00:14:05;;;;;;;7.53;2.05;;;4.90;90.50;;;;;;5071701;28;20551;-72
2023/01/03 00:16:31;;;;;;;6.05;2.05;;;4.90;90.60;;;;;;5071823;28;20045;-76
2023/01/03 00:18:56;;;;;;;5.30;1.70;;;4.80;90.60;;;;;;5071749;28;20049;-76
2023/01/03 00:21:22;;;;;;;5.78;2.28;;;4.90;90.90;;;;;;5071841;28;20080;-74
2023/01/03 00:23:48;;;;;;;6.05;1.42;;;4.90;90.80;;;;;;5071473;28;20088;-73
2023/01/03 00:26:17;;;;;;;6.07;1.92;;;4.90;90.90;;;;;;5071697;28;20052;-73
2023/01/03 00:28:43;;;;;;;5.78;1.70;;;4.90;90.90;;;;;;5071573;28;20041;-72
2023/01/03 00:31:10;;;;;;;7.20;2.30;;;4.90;91.10;;;;;;5055021;28;20037;-72
2023/01/03 00:33:38;;;;;;;7.78;1.98;;;4.90;91.20;;;;;;5054938;28;20067;-75
2023/01/03 00:36:05;;;;;;;6.13;1.90;;;4.90;91.30;;;;;;5071830;28;20485;-72
2023/01/03 00:38:31;;;;;;;3.42;1.52;;;5.00;91.30;;;;;;5071504;28;20044;-74
2023/01/03 00:41:09;;;;;;;9.82;2.45;;;5.00;91.40;;;;;;5071850;28;20392;-72
2023/01/03 00:43:36;;;;;;;7.55;1.67;;;5.00;91.40;;;;;;5071491;28;20047;-73
2023/01/03 00:46:02;;;;;;;4.82;2.00;;;5.00;91.50;;;;;;5071456;28;20040;-74
2023/01/03 00:48:29;;;;;;;5.38;1.70;;;5.00;91.50;;;;;;5055017;28;20036;-74
2023/01/03 00:50:55;;;;;;;5.50;2.00;;;5.00;91.50;;;;;;5071438;28;20123;-72
2023/01/03 00:53:21;;;;;;;5.57;1.92;;;5.00;91.60;;;;;;5071433;28;20102;-76
2023/01/03 00:55:47;;;;;;;10.88;2.05;;;5.00;91.60;;;;;;5071463;28;20040;-73
2023/01/03 00:58:13;;;;;;;7.30;3.58;;;5.00;91.60;;;;;;5054330;28;20064;-72
2023/01/03 01:00:39;;;;;;;6.82;2.42;;;5.00;91.60;;;;;;5069759;28;20072;-73
2023/01/03 01:03:05;;;;;;;8.25;2.30;;;5.00;91.60;;;;;;5069602;28;20079;-74
2023/01/03 01:05:31;;;;;;;5.28;1.90;;;5.10;91.60;;;;;;5070861;28;20053;-74
2023/01/03 01:07:57;;;;;;;8.30;1.90;;;5.10;91.40;;;;;;5074068;28;20051;-73
2023/01/03 01:10:23;;;;;;;6.00;2.63;;;5.10;91.30;;;;;;5075232;28;20044;-73
2023/01/03 01:12:48;;;;;;;7.00;1.90;;;5.10;91.30;;;;;;5075101;28;20135;-73
2023/01/03 01:15:14;;;;;;;7.57;2.20;;;5.10;91.40;;;;;;5075166;28;20086;-73
2023/01/03 01:17:40;;;;;;;4.82;1.70;;;5.10;91.30;;;;;;5075097;28;20109;-74
2023/01/03 01:20:07;;;;;;;8.48;1.95;;;5.00;91.40;;;;;;5075363;28;20040;-75
2023/01/03 01:22:34;;;;;;;7.13;1.85;;;5.00;91.60;;;;;;5058205;28;20111;-73
2023/01/03 01:25:00;;;;;;;6.45;2.35;;;5.00;91.50;;;;;;5058302;28;20554;-74
2023/01/03 01:27:25;;;;;;;7.57;2.22;;;4.90;91.50;;;;;;5074875;28;20044;-73
2023/01/03 01:29:52;;;;;;;6.05;2.28;;;4.80;91.50;;;;;;5074946;28;20044;-73
2023/01/03 01:32:17;;;;;;;8.10;1.92;;;4.70;91.10;;;;;;5058216;28;20075;-73
2023/01/03 01:34:43;;;;;;;7.57;2.42;;;4.60;91.60;;;;;;5074740;28;20107;-74
2023/01/03 01:37:09;;;;;;;8.60;2.58;;;4.60;91.60;;;;;;5074867;28;20036;-75
2023/01/03 01:39:34;;;;;;;5.95;2.60;;;4.50;91.70;;;;;;5058134;28;20063;-73
2023/01/03 01:45:00;;;;;;;8.27;2.80;;;4.50;91.80;;;;;;5063864;28;20131;-73
2023/01/03 01:47:44;;;;;;;6.18;3.22;;;4.50;92.00;;;;;;5074876;28;20392;-73
2023/01/03 01:50:09;;;;;;;7.20;2.50;;;4.40;91.80;;;;;;5074582;28;20048;-73
2023/01/03 01:52:40;;;;;;;6.65;2.55;;;4.40;91.80;;;;;;5074719;28;20041;-74
2023/01/03 01:55:11;;;;;;;6.45;2.50;;;4.30;91.90;;;;;;5074410;28;20111;-72
2023/01/03 01:57:38;;;;;;;6.82;2.47;;;4.30;91.90;;;;;;5074486;28;20487;-72
2023/01/03 02:00:06;;;;;;;11.68;3.35;;;4.30;92.00;;;;;;5074344;28;20049;-75
2023/01/03 02:02:32;;;;;;;6.38;2.75;;;4.30;92.00;;;;;;5058042;28;20380;-73
2023/01/03 02:04:59;;;;;;;3.95;2.10;;;4.30;92.00;;;;;;5057848;28;20036;-73
2023/01/03 02:07:25;;;;;;;8.90;2.30;;;4.20;92.00;;;;;;5074171;28;20153;-72
2023/01/03 02:09:54;;;;;;;5.95;1.90;;;4.10;92.00;;;;;;5074158;28;20144;-75
2023/01/03 02:15:24;;;;;;;7.10;2.42;;;4.10;92.20;;;;;;5074030;28;20484;-74
2023/01/03 02:18:14;;;;;;;8.50;3.03;;;4.10;92.20;;;;;;5069841;28;20396;-74
2023/01/03 02:21:15;;;;;;;13.45;4.13;;;4.10;92.30;;;;;;5057345;28;20082;-76
2023/01/03 02:24:38;;;;;;;11.85;5.97;;;4.10;92.30;;;;;;5073766;28;20475;-72
2023/01/03 02:27:12;;;;;;;9.82;4.03;;;4.00;92.40;;;;;;5056367;28;20094;-74
2023/01/03 02:30:13;;;;;;;10.88;4.78;;;4.00;92.40;;;;;;5056083;28;20090;-74
2023/01/03 02:32:52;;;;;;;8.35;3.83;;;3.90;92.40;;;;;;5057261;28;20133;-72
2023/01/03 02:35:23;;;;;;;10.60;3.72;;;3.80;92.40;;;;;;5074027;28;20047;-73
2023/01/03 02:38:07;;;;;;;6.38;3.70;;;3.80;92.50;;;;;;5073687;28;20043;-74
2023/01/03 02:40:42;;;;;;;8.18;3.15;;;3.70;92.50;;;;;;5056975;28;20083;-73
2023/01/03 02:43:28;;;;;;;6.35;2.60;;;3.70;92.50;;;;;;5073462;28;20493;-74
2023/01/03 02:46:12;;;;;;;7.78;2.53;;;3.60;92.60;;;;;;5073524;28;20071;-73
2023/01/03 02:48:47;;;;;;;5.45;2.17;;;3.60;92.70;;;;;;5073431;28;20499;-74
2023/01/03 02:51:34;;;;;;;6.00;2.38;;;3.60;92.80;;;;;;5073617;28;20119;-72
2023/01/03 02:54:02;;;;;;;5.13;2.00;;;3.60;92.80;;;;;;5073556;28;20118;-73
2023/01/03 02:56:36;;;;;;;7.35;2.65;;;3.60;92.90;;;;;;5073523;28;20467;-75
2023/01/03 02:59:07;;;;;;;10.85;4.00;;;3.60;93.00;;;;;;5073460;28;20036;-74
2023/01/03 03:01:34;;;;;;;7.82;4.63;;;3.60;93.20;;;;;;5073408;28;20423;-72
2023/01/03 03:04:02;;;;;;;10.07;4.90;;;3.60;93.20;;;;;;5073041;28;20048;-73
2023/01/03 03:06:46;;;;;;;9.15;4.35;;;3.60;93.20;;;;;;5073067;28;20489;-74
2023/01/03 03:09:12;;;;;;;5.97;3.40;;;3.50;93.30;;;;;;5072942;28;20045;-74
2023/01/03 03:14:42;;;;;;;6.25;2.78;;;3.50;93.50;;;;;;5072886;28;20106;-73
2023/01/03 03:17:13;;;;;;;6.43;2.20;;;3.50;93.70;;;;;;5073156;28;20115;-75
2023/01/03 03:25:26;;;;;;;5.25;2.38;;;3.40;93.80;;;;;;5072928;28;20071;-72
2023/01/03 03:30:44;;;;;;;8.57;3.05;;;3.40;94.10;;;;;;5072450;28;20063;-73
2023/01/03 03:33:14;;;;;;;6.65;2.78;;;3.50;94.20;;;;;;5072462;28;20044;-74
2023/01/03 03:35:48;;;;;;;10.25;3.25;;;3.40;94.40;;;;;;5072513;28;20075;-74
2023/01/03 03:38:19;;;;;;;5.40;2.30;;;3.50;94.40;;;;;;5072558;28;20075;-74
2023/01/03 03:46:44;;;;;;;6.38;2.67;;;3.50;94.50;;;;;;5072668;28;20044;-73
2023/01/03 03:52:01;;;;;;;8.50;2.85;;;3.50;94.60;;;;;;5072248;28;20503;-72
2023/01/03 03:54:28;;;;;;;7.30;3.03;;;3.50;94.40;;;;;;5072089;28;20086;-73
2023/01/03 03:57:15;;;;;;;5.05;2.60;;;3.50;94.40;;;;;;5072109;28;20044;-73
2023/01/03 03:59:46;;;;;;;7.63;2.90;;;3.50;94.40;;;;;;5072402;28;20460;-75
2023/01/03 04:02:14;;;;;;;7.22;2.97;;;3.50;94.40;;;;;;5072045;28;20499;-72
2023/01/03 04:04:45;;;;;;;8.13;2.97;;;3.50;94.30;;;;;;5055271;28;20044;-73
2023/01/03 04:07:10;;;;;;;7.57;3.83;;;3.40;94.30;;;;;;5072458;28;20041;-74
2023/01/03 04:09:36;;;;;;;5.22;3.50;;;3.40;94.40;;;;;;5071884;28;20318;-75
2023/01/03 04:12:02;;;;;;;8.00;3.50;;;3.40;94.40;;;;;;5055575;28;20037;-73
2023/01/03 04:14:28;;;;;;;13.82;3.65;;;3.40;94.50;;;;;;5071744;28;20534;-73
2023/01/03 04:16:53;;;;;;;6.38;3.35;;;3.40;94.30;;;;;;5071825;28;20036;-74
2023/01/03 04:19:19;;;;;;;10.20;3.92;;;3.40;94.20;;;;;;5072129;28;20048;-73
2023/01/03 04:21:45;;;;;;;6.57;3.75;;;3.50;94.40;;;;;;5055129;28;20439;-74
2023/01/03 04:24:10;;;;;;;7.57;3.25;;;3.50;94.40;;;;;;5054793;28;20060;-74
2023/01/03 04:26:36;;;;;;;9.43;3.85;;;3.50;94.50;;;;;;5055062;28;20051;-73
2023/01/03 04:29:02;;;;;;;7.97;3.92;;;3.50;94.50;;;;;;5071891;28;20036;-75
2023/01/03 04:31:27;;;;;;;6.95;3.38;;;3.50;94.50;;;;;;5071662;28;20123;-74
2023/01/03 04:33:53;;;;;;;11.90;3.58;;;3.50;94.60;;;;;;5071566;28;20093;-72
2023/01/03 04:36:19;;;;;;;7.47;3.80;;;3.50;94.60;;;;;;5038672;28;20076;-72
2023/01/03 04:38:45;;;;;;;7.80;4.35;;;3.50;94.80;;;;;;5071654;28;20041;-73
2023/01/03 04:41:11;;;;;;;10.35;4.05;;;3.50;94.90;;;;;;5071696;28;20036;-74
2023/01/03 04:46:21;;;;;;;10.77;7.00;;;3.50;94.70;;;;;;5071619;28;20048;-74
2023/01/03 04:48:47;;;;;;;12.98;4.90;;;3.50;94.80;;;;;;5071534;28;20036;-75
2023/01/03 04:51:13;;;;;;;9.02;4.50;;;3.60;94.80;;;;;;5071494;28;20052;-72
2023/01/03 04:53:39;;;;;;;10.27;4.93;;;3.60;94.90;;;;;;5071369;28;20090;-73
2023/01/03 04:56:05;;;;;;;8.68;4.97;;;3.60;95.00;;;;;;5071466;28;20036;-73
2023/01/03 04:58:31;;;;;;;10.43;5.00;;;3.60;95.00;;;;;;5038219;28;20045;-72
2023/01/03 05:01:03;;;;;;;6.30;4.72;;;3.70;95.10;;;;;;5054989;28;20040;-73
2023/01/03 05:03:29;;;;;;;9.82;4.57;;;3.70;95.10;;;;;;5071666;28;20070;-72
2023/01/03 05:06:02;;;;;;;9.23;5.45;;;3.80;95.10;;;;;;5070893;28;20045;-73
2023/01/03 05:08:28;;;;;;;8.73;5.43;;;3.80;95.00;;;;;;5063000;28;20037;-72
2023/01/03 05:10:54;;;;;;;8.43;4.75;;;3.80;95.10;;;;;;5062248;28;20041;-72
2023/01/03 05:13:20;;;;;;;12.68;5.03;;;3.90;95.00;;;;;;5060217;28;20116;-73
2023/01/03 05:15:45;;;;;;;9.95;4.68;;;3.90;95.00;;;;;;5061861;28;20029;-74
2023/01/03 05:18:11;;;;;;;7.35;4.28;;;3.90;95.00;;;;;;5061005;28;20036;-73
2023/01/03 05:26:16;;;;;;;10.38;4.32;;;3.90;94.70;;;;;;5059878;28;20051;-73
2023/01/03 05:28:44;;;;;;;9.05;3.83;;;3.80;94.60;;;;;;5045408;28;20094;-72
2023/01/03 05:31:10;;;;;;;10.02;4.55;;;3.80;94.50;;;;;;5059225;28;20086;-74
2023/01/03 05:33:40;;;;;;;9.35;4.25;;;3.80;94.40;;;;;;5042330;28;20469;-73
2023/01/03 05:36:06;;;;;;;11.25;4.65;;;3.80;94.40;;;;;;5034477;28;20044;-72
2023/01/03 05:38:32;;;;;;;13.25;4.55;;;3.70;94.50;;;;;;5034405;28;20045;-72
2023/01/03 05:40:58;;;;;;;8.95;5.32;;;3.70;94.40;;;;;;5051025;28;20083;-72
2023/01/03 05:43:24;;;;;;;16.92;11.90;;;3.60;94.40;;;;;;5051204;28;20041;-72
2023/01/03 05:45:51;;;;;;;27.85;21.73;;;3.50;94.40;;;;;;5050997;28;20048;-75
2023/01/03 05:48:18;;;;;;;8.30;5.80;;;3.50;94.40;;;;;;5050893;28;20048;-74
2023/01/03 05:50:44;;;;;;;6.45;3.88;;;3.50;94.40;;;;;;5034516;28;20075;-72
2023/01/03 05:53:10;;;;;;;8.13;4.00;;;3.40;94.40;;;;;;5053691;28;20481;-73
2023/01/03 05:55:36;;;;;;;8.68;3.75;;;3.40;94.40;;;;;;5038026;28;20043;-74
2023/01/03 05:58:03;;;;;;;8.93;4.30;;;3.30;94.40;;;;;;5054378;28;20040;-72
2023/01/03 06:00:28;;;;;;;7.28;4.40;;;3.30;94.50;;;;;;5054391;28;20045;-72
2023/01/03 06:02:54;;;;;;;8.35;5.70;;;3.30;94.50;;;;;;5037610;28;20052;-73
2023/01/03 06:05:20;;;;;;;8.75;5.75;;;3.30;94.50;;;;;;5054297;28;20087;-74
2023/01/03 06:07:46;;;;;;;7.97;5.88;;;3.30;94.60;;;;;;5054514;28;20037;-72
2023/01/03 06:10:12;;;;;;;10.75;6.40;;;3.30;94.60;;;;;;5054289;28;20465;-72
2023/01/03 06:12:38;;;;;;;11.00;7.45;;;3.20;94.60;;;;;;5054425;28;20171;-74
2023/01/03 06:15:04;;;;;;;14.02;7.90;;;3.20;94.70;;;;;;5054009;28;20496;-72
2023/01/03 06:20:14;;;;;;;9.60;6.80;;;3.20;94.70;;;;;;5040323;28;20068;-74
2023/01/03 06:22:39;;;;;;;13.35;7.03;;;3.10;94.80;;;;;;5053800;28;20299;-72
2023/01/03 06:25:05;;;;;;;15.60;8.63;;;3.10;94.80;;;;;;5037558;28;20047;-72
2023/01/03 06:27:31;;;;;;;17.02;9.05;;;3.10;95.00;;;;;;5037319;28;20037;-72
2023/01/03 06:29:57;;;;;;;17.38;10.30;;;3.10;95.10;;;;;;5053764;28;20378;-72
2023/01/03 06:32:22;;;;;;;15.63;10.10;;;3.10;95.10;;;;;;5053779;28;20045;-73
2023/01/03 06:34:48;;;;;;;17.00;10.80;;;3.10;95.10;;;;;;5053936;28;20418;-71
2023/01/03 06:37:14;;;;;;;16.58;10.70;;;3.00;95.10;;;;;;5037218;28;20473;-72
2023/01/03 06:39:39;;;;;;;20.33;11.15;;;3.00;95.20;;;;;;5037099;28;20539;-72
2023/01/03 06:53:37;;;;;;;21.67;13.15;;;2.80;95.50;;;;;;5047813;28;20044;-72
2023/01/03 06:56:04;;;;;;;21.00;13.20;;;2.80;95.60;;;;;;5036731;28;20115;-73
2023/01/03 06:58:30;;;;;;;21.95;13.18;;;2.80;95.60;;;;;;5053248;28;20056;-73
2023/01/03 07:00:57;;;;;;;22.38;13.70;;;2.80;95.60;;;;;;5053182;28;20623;-73
2023/01/03 07:03:23;;;;;;;22.30;13.70;;;2.70;95.60;;;;;;5051878;28;20401;-73
2023/01/03 07:05:49;;;;;;;22.80;14.55;;;2.70;95.60;;;;;;5053026;28;20040;-72
2023/01/03 07:08:15;;;;;;;23.30;14.25;;;2.70;95.60;;;;;;5052930;28;20041;-73
2023/01/03 07:10:41;;;;;;;25.25;15.95;;;2.70;95.60;;;;;;5036341;28;20041;-72
2023/01/03 07:15:50;;;;;;;21.63;14.10;;;2.60;95.50;;;;;;5053149;28;20052;-73
2023/01/03 07:18:16;;;;;;;26.40;14.55;;;2.60;95.50;;;;;;5052892;28;20374;-72
2023/01/03 07:20:43;;;;;;;27.20;15.63;;;2.70;95.50;;;;;;5053064;28;20045;-71
2023/01/03 07:23:09;;;;;;;26.08;16.17;;;2.70;95.40;;;;;;5052557;28;20057;-72
2023/01/03 07:25:39;;;;;;;29.45;16.77;;;2.70;95.30;;;;;;5053042;28;20459;-73
2023/01/03 07:28:12;;;;;;;23.42;15.68;;;2.70;95.30;;;;;;5052800;28;20182;-74
2023/01/03 07:30:39;;;;;;;23.15;15.68;;;2.60;95.30;;;;;;5052541;28;20072;-71
2023/01/03 07:33:06;;;;;;;24.25;16.45;;;2.70;95.30;;;;;;5052835;28;20044;-71
2023/01/03 07:35:36;;;;;;;27.58;17.35;;;2.60;95.30;;;;;;5052594;28;20055;-72
2023/01/03 07:38:02;;;;;;;23.63;15.52;;;2.70;95.20;;;;;;5052667;28;20036;-71
2023/01/03 07:40:28;;;;;;;27.02;16.52;;;2.70;95.20;;;;;;5052357;28;20081;-74
2023/01/03 07:45:40;;;;;;;29.10;16.30;;;2.70;95.10;;;;;;5038084;28;20041;-72
2023/01/03 07:48:06;;;;;;;24.77;17.52;;;2.70;95.10;;;;;;5035670;28;20366;-72
2023/01/03 07:50:31;;;;;;;32.40;20.00;;;2.60;95.20;;;;;;5052313;28;20049;-74
2023/01/03 07:52:57;;;;;;;33.35;19.25;;;2.70;95.10;;;;;;5052182;28;20469;-72
2023/01/03 07:55:23;;;;;;;32.95;20.10;;;2.70;95.10;;;;;;5052385;28;20041;-70
2023/01/03 07:57:48;;;;;;;31.90;19.73;;;2.70;95.00;;;;;;5052183;28;20037;-71
2023/01/03 08:00:14;;;;;;;26.77;17.13;;;2.70;95.10;;;;;;5053422;28;20382;-72
2023/01/03 08:02:40;;;;;;;27.27;18.40;;;2.70;95.00;;;;;;5035529;28;20055;-74
2023/01/03 08:05:06;;;;;;;29.27;18.95;;;2.60;94.90;;;;;;5051253;28;20041;-73
2023/01/03 08:07:32;;;;;;;25.92;17.52;;;2.60;94.90;;;;;;5052065;28;20044;-73
2023/01/03 08:15:26;;;;;;;34.22;20.88;;;2.50;94.90;;;;;;5071596;28;20079;-72
2023/01/03 08:17:51;;;;;;;32.10;21.70;;;2.50;95.00;;;;;;5055245;28;20076;-71
2023/01/03 08:20:17;;;;;;;30.13;20.75;;;2.50;95.00;;;;;;5055065;28;20066;-73
2023/01/03 08:22:43;;;;;;;38.72;23.30;;;2.50;95.00;;;;;;5071446;28;20110;-74
2023/01/03 08:25:09;;;;;;;34.20;22.90;;;2.50;95.00;;;;;;5071777;28;20071;-73
2023/01/03 08:27:34;;;;;;;37.70;25.83;;;2.40;95.10;;;;;;5055076;28;20400;-72
2023/01/03 08:30:00;;;;;;;41.00;26.27;;;2.40;95.20;;;;;;5055060;28;20040;-73
2023/01/03 08:32:27;;;;;;;37.88;23.90;;;2.30;95.30;;;;;;5071991;28;20037;-73
2023/01/03 08:34:53;;;;;;;41.45;26.00;;;2.30;95.30;;;;;;5055014;28;20044;-73
2023/01/03 08:37:19;;;;;;;129.68;30.77;;;2.20;95.40;;;;;;5071582;28;20044;-72
2023/01/03 08:39:51;;;;;;;72.18;24.90;;;2.20;95.50;;;;;;5071980;28;20141;-71
2023/01/03 08:42:19;;;;;;;125.57;31.17;;;2.10;95.80;;;;;;5071951;28;20067;-72
2023/01/03 08:44:46;;;;;;;177.98;31.98;;;2.10;96.00;;;;;;5071906;28;20107;-71
2023/01/03 08:47:13;;;;;;;122.50;36.00;;;1.90;96.10;;;;;;5071628;28;20048;-72
2023/01/03 08:49:39;;;;;;;109.22;30.38;;;1.90;96.20;;;;;;5071733;28;20045;-72
2023/01/03 08:52:05;;;;;;;103.18;27.10;;;2.00;96.20;;;;;;5054783;28;20514;-71
2023/01/03 08:54:31;;;;;;;59.78;21.42;;;1.90;96.20;;;;;;5054747;28;20044;-71
2023/01/03 08:56:57;;;;;;;67.38;21.67;;;1.80;96.30;;;;;;5071454;28;20040;-72
2023/01/03 08:59:23;;;;;;;62.33;20.02;;;1.90;96.20;;;;;;5072748;28;20048;-72
2023/01/03 09:01:48;;;;;;;72.60;22.40;;;1.80;96.40;;;;;;5071769;28;20044;-71
2023/01/03 09:04:14;;;;;;;48.78;19.60;;;1.70;96.50;;;;;;5071558;28;20080;-71
2023/01/03 09:06:40;;;;;;;77.00;22.25;;;1.70;96.60;;;;;;5071463;28;20477;-72
2023/01/03 09:09:07;;;;;;;74.57;20.95;;;1.70;97.00;;;;;;5071264;28;20404;-72
2023/01/03 09:11:33;;;;;;;80.18;29.02;;;1.60;97.10;;;;;;5071334;28;20097;-72
2023/01/03 09:13:59;;;;;;;62.25;26.92;;;1.70;97.30;;;;;;5071586;28;20127;-74
2023/01/03 09:16:25;;;;;;;87.90;32.88;;;1.70;96.80;;;;;;5071377;28;20047;-72
2023/01/03 09:18:51;;;;;;;69.45;23.25;;;1.80;96.90;;;;;;5071585;28;20047;-70
2023/01/03 09:21:17;;;;;;;93.25;23.30;;;1.80;97.30;;;;;;5054691;28;20484;-71
2023/01/03 09:23:43;;;;;;;73.75;21.70;;;1.90;96.80;;;;;;5070920;28;20155;-73
2023/01/03 09:26:08;;;;;;;56.50;19.92;;;1.90;97.00;;;;;;5071495;28;20044;-73
2023/01/03 09:28:34;;;;;;;70.65;22.05;;;2.00;96.90;;;;;;5074887;28;20051;-71
2023/01/03 09:31:00;;;;;;;114.18;23.55;;;2.00;97.00;;;;;;5058155;28;20102;-72
2023/01/03 09:33:26;;;;;;;75.38;19.15;;;2.10;97.00;;;;;;5057984;28;20083;-72
2023/01/03 09:35:53;;;;;;;110.38;27.77;;;2.10;96.80;;;;;;5074356;28;20127;-71
2023/01/03 09:38:20;;;;;;;97.78;23.50;;;2.10;96.90;;;;;;5074735;28;20187;-72
2023/01/03 09:40:46;;;;;;;116.70;28.20;;;2.20;96.70;;;;;;5074821;28;20051;-73
2023/01/03 09:43:21;;;;;;;135.93;32.83;;;2.20;96.90;;;;;;5074957;28;20032;-72
2023/01/03 09:45:57;;;;;;;64.90;23.33;;;2.20;96.60;;;;;;5052075;28;20037;-72
2023/01/03 09:48:39;;;;;;;97.95;25.33;;;2.30;96.80;;;;;;5074888;28;20402;-74
2023/01/03 10:05:46;;;;;;;80.82;25.05;;;2.60;96.70;;;;;;5074333;28;20127;-73
2023/01/03 10:08:32;;;;;;;68.75;24.60;;;2.70;96.70;;;;;;5074544;28;20122;-74
2023/01/03 10:11:06;;;;;;;74.35;26.77;;;2.80;96.70;;;;;;5074065;28;20036;-73
2023/01/03 10:13:41;;;;;;;141.85;33.97;;;2.90;96.60;;;;;;5056369;28;20033;-72
2023/01/03 10:16:26;;;;;;;128.90;36.75;;;3.00;96.80;;;;;;5070579;28;20044;-74
2023/01/03 10:19:16;;;;;;;106.13;32.65;;;3.10;96.90;;;;;;5070133;28;20036;-74
2023/01/03 10:21:58;;;;;;;103.53;32.60;;;3.10;97.10;;;;;;5072511;28;20032;-74
2023/01/03 10:24:28;;;;;;;82.10;29.92;;;3.20;97.00;;;;;;5071608;28;20501;-74
2023/01/03 10:27:16;;;;;;;94.63;30.15;;;3.30;97.00;;;;;;5072409;28;20033;-74
2023/01/03 10:29:44;;;;;;;86.05;30.25;;;3.40;97.30;;;;;;5066199;28;20044;-72
2023/01/03 10:32:31;;;;;;;88.80;34.38;;;3.40;97.30;;;;;;5057442;28;20047;-75
2023/01/03 10:35:36;;;;;;;128.68;37.65;;;3.50;97.30;;;;;;5073759;28;20075;-72
2023/01/03 10:38:02;;;;;;;84.07;34.17;;;3.60;97.30;;;;;;5073095;28;20056;-71
2023/01/03 10:40:37;;;;;;;109.35;39.92;;;3.70;97.40;;;;;;5073397;28;20595;-72
2023/01/03 10:43:18;;;;;;;117.68;39.67;;;3.80;97.50;;;;;;5073595;28;20162;-71
2023/01/03 10:45:52;;;;;;;109.50;39.33;;;3.80;97.40;;;;;;5073864;28;20028;-75
2023/01/03 10:48:18;;;;;;;119.05;44.10;;;3.90;97.40;;;;;;5073410;28;20558;-76
2023/01/03 10:50:46;;;;;;;106.90;40.20;;;4.00;97.50;;;;;;5073377;28;20040;-73
2023/01/03 10:53:14;;;;;;;107.60;42.78;;;4.00;97.40;;;;;;5073255;28;20047;-73
2023/01/03 10:55:49;;;;;;;116.45;45.50;;;4.10;97.20;;;;;;5073139;28;20523;-73
2023/01/03 10:58:26;;;;;;;104.47;43.13;;;4.20;96.90;;;;;;5073596;28;20044;-71
2023/01/03 11:01:08;;;;;;;116.07;46.15;;;4.20;97.00;;;;;;5073238;28;20127;-72
2023/01/03 11:03:33;;;;;;;103.30;43.55;;;4.40;97.20;;;;;;5073206;28;20073;-73
2023/01/03 11:05:59;;;;;;;102.18;43.58;;;4.50;97.40;;;;;;5073186;28;20048;-72
2023/01/03 11:08:44;;;;;;;106.70;45.53;;;4.60;97.50;;;;;;5073124;28;20047;-73
2023/01/03 11:11:30;;;;;;;97.20;42.35;;;4.60;97.40;;;;;;5073106;28;20128;-73
2023/01/03 11:14:08;;;;;;;94.22;40.58;;;4.60;97.30;;;;;;5072747;28;20052;-75
2023/01/03 11:16:34;;;;;;;97.15;43.53;;;4.70;97.30;;;;;;5073024;28;20072;-72
2023/01/03 11:19:03;;;;;;;116.32;66.13;;;4.70;97.60;;;;;;5072947;28;20080;-73
2023/01/03 11:21:41;;;;;;;108.93;53.10;;;4.80;97.50;;;;;;5056291;28;20078;-73
2023/01/03 11:24:49;;;;;;;86.85;40.45;;;4.90;97.50;;;;;;5072557;28;20343;-76
2023/01/03 11:27:43;;;;;;;76.30;40.90;;;5.00;97.70;;;;;;5061512;28;20053;-75
2023/01/03 11:30:16;;;;;;;90.03;51.40;;;5.10;97.90;;;;;;5072667;28;20040;-73
2023/01/03 11:32:41;;;;;;;79.65;41.95;;;5.10;97.70;;;;;;5072804;28;20072;-73
2023/01/03 11:35:34;;;;;;;75.97;39.25;;;5.20;97.90;;;;;;5064947;28;20218;-70
2023/01/03 11:38:39;;;;;;;76.30;39.20;;;5.20;97.60;;;;;;5072354;28;20171;-73
2023/01/03 11:41:24;;;;;;;77.22;44.17;;;5.20;97.60;;;;;;5072503;28;20080;-71
2023/01/03 11:44:15;;;;;;;81.80;44.35;;;5.20;97.60;;;;;;5072418;28;20044;-70
2023/01/03 11:47:10;;;;;;;80.10;41.63;;;5.30;97.60;;;;;;5072602;28;20369;-70
2023/01/03 11:49:42;;;;;;;84.57;44.85;;;5.40;97.70;;;;;;5071683;28;20048;-71
2023/01/03 11:52:28;;;;;;;83.90;41.40;;;5.40;97.80;;;;;;5072524;28;20044;-72
2023/01/03 11:55:16;;;;;;;76.53;48.03;;;5.50;97.90;;;;;;5072028;28;20511;-71
2023/01/03 11:58:23;;;;;;;79.85;43.03;;;5.50;97.70;;;;;;5072196;28;20040;-72
2023/01/03 12:01:01;;;;;;;77.70;40.75;;;5.50;97.60;;;;;;5062682;28;20087;-72
2023/01/03 12:03:45;;;;;;;68.35;38.00;;;5.60;97.90;;;;;;5072080;28;20113;-73
2023/01/03 12:06:23;;;;;;;75.07;34.88;;;5.60;97.90;;;;;;5072180;28;20036;-75
2023/01/03 12:08:57;;;;;;;68.70;34.28;;;5.60;98.00;;;;;;5072280;28;20435;-76
2023/01/03 12:11:37;;;;;;;68.75;36.47;;;5.60;98.00;;;;;;5072366;28;20405;-75
2023/01/03 12:14:25;;;;;;;69.90;36.80;;;5.60;98.10;;;;;;5071864;28;20551;-72
2023/01/03 12:17:01;;;;;;;67.70;35.80;;;5.70;98.20;;;;;;5072021;28;20043;-74
2023/01/03 12:19:50;;;;;;;68.40;36.38;;;5.70;97.90;;;;;;5071877;28;20040;-72
2023/01/03 12:22:19;;;;;;;66.28;35.83;;;5.70;97.80;;;;;;5067659;28;20063;-72
2023/01/03 12:24:58;;;;;;;65.55;37.25;;;5.70;97.80;;;;;;5071548;28;20070;-71
2023/01/03 12:27:34;;;;;;;57.75;33.30;;;5.80;97.70;;;;;;5072018;28;20045;-70
2023/01/03 12:30:16;;;;;;;63.05;32.92;;;5.80;97.90;;;;;;5071738;28;20079;-71
2023/01/03 12:32:48;;;;;;;58.03;34.90;;;5.80;97.80;;;;;;5055258;28;20094;-70
2023/01/03 12:35:41;;;;;;;62.75;33.00;;;5.90;98.20;;;;;;5071740;28;20036;-72
2023/01/03 12:38:10;;;;;;;55.58;31.83;;;5.90;98.10;;;;;;5071965;28;20054;-73
2023/01/03 12:40:50;;;;;;;60.33;33.78;;;6.00;98.30;;;;;;5054497;28;20048;-70
2023/01/03 12:43:28;;;;;;;62.08;35.03;;;6.00;98.20;;;;;;5071736;28;20064;-73
2023/01/03 12:46:01;;;;;;;63.92;33.05;;;6.00;98.50;;;;;;5070600;28;20047;-72
2023/01/03 12:48:48;;;;;;;58.20;32.67;;;6.10;98.40;;;;;;5070137;28;20571;-75
2023/01/03 12:51:20;;;;;;;56.00;30.75;;;6.10;98.40;;;;;;5071438;28;20103;-70
2023/01/03 12:54:16;;;;;;;49.00;29.60;;;6.10;98.20;;;;;;5071457;28;20051;-74
2023/01/03 12:57:09;;;;;;;62.35;29.92;;;6.10;98.30;;;;;;5070281;28;20059;-72
2023/01/03 12:59:35;;;;;;;46.95;27.33;;;6.20;98.60;;;;;;5071448;28;20076;-71
2023/01/03 13:02:45;;;;;;;45.60;27.17;;;6.20;98.30;;;;;;5074439;28;20079;-72
2023/01/03 13:05:25;;;;;;;45.92;26.23;;;6.30;98.60;;;;;;5070371;28;20087;-73
2023/01/03 13:08:17;;;;;;;50.35;26.38;;;6.30;98.40;;;;;;5058822;28;20044;-72
2023/01/03 13:10:49;;;;;;;44.30;26.45;;;6.30;98.40;;;;;;5075447;28;20053;-72
2023/01/03 13:13:18;;;;;;;44.75;27.48;;;6.30;98.30;;;;;;5075272;28;20537;-73
2023/01/03 13:15:45;;;;;;;47.40;26.98;;;6.30;98.20;;;;;;5058556;28;20043;-72
2023/01/03 13:18:29;;;;;;;43.75;26.13;;;6.50;98.40;;;;;;5075290;28;20490;-72
2023/01/03 13:20:56;;;;;;;48.03;24.63;;;6.50;98.40;;;;;;5075337;28;20051;-73
2023/01/03 13:23:34;;;;;;;47.10;26.25;;;6.50;98.10;;;;;;5074880;28;20139;-71
2023/01/03 13:26:05;;;;;;;45.95;25.95;;;6.50;98.30;;;;;;5075427;28;20404;-71
2023/01/03 13:28:36;;;;;;;44.63;25.02;;;6.50;98.30;;;;;;5058419;28;20041;-73
2023/01/03 13:31:14;;;;;;;50.97;28.38;;;6.60;98.10;;;;;;5074887;28;20040;-71
2023/01/03 13:33:53;;;;;;;52.03;26.05;;;6.60;98.20;;;;;;5074889;28;20492;-71
2023/01/03 13:36:19;;;;;;;54.08;27.70;;;6.70;98.30;;;;;;5074920;28;20045;-74
2023/01/03 13:38:45;;;;;;;55.00;28.30;;;6.80;98.40;;;;;;5074808;28;20040;-73
2023/01/03 13:41:39;;;;;;;62.40;29.90;;;6.80;98.00;;;;;;5074726;28;20124;-71
2023/01/03 13:44:23;;;;;;;62.80;29.38;;;6.80;98.10;;;;;;5074656;28;20123;-73
2023/01/03 13:46:50;;;;;;;52.75;27.80;;;6.80;98.40;;;;;;5074734;28;20516;-71
2023/01/03 13:49:19;;;;;;;58.63;29.25;;;6.80;98.20;;;;;;5074804;28;20048;-74
2023/01/03 13:51:50;;;;;;;58.88;29.67;;;6.90;98.30;;;;;;5074512;28;20040;-72
2023/01/03 13:54:15;;;;;;;63.63;26.92;;;6.90;98.20;;;;;;5074536;28;20047;-72
2023/01/03 13:56:44;;;;;;;41.65;24.73;;;6.90;98.40;;;;;;5074488;28;20044;-73
2023/01/03 13:59:13;;;;;;;49.72;26.73;;;7.00;98.30;;;;;;5074752;28;20378;-73
2023/01/03 14:02:09;;;;;;;48.47;25.95;;;7.00;98.20;;;;;;5074661;28;20055;-71
2023/01/03 14:04:56;;;;;;;53.97;29.10;;;7.00;98.10;;;;;;5057603;28;20044;-74
2023/01/03 14:07:46;;;;;;;47.90;26.38;;;7.00;98.20;;;;;;5074571;28;20044;-72
2023/01/03 14:10:43;;;;;;;42.53;23.55;;;7.10;98.00;;;;;;5074390;28;20481;-71
2023/01/03 14:13:24;;;;;;;46.05;24.60;;;7.10;98.00;;;;;;5073426;28;20041;-71
2023/01/03 14:16:18;;;;;;;43.83;24.42;;;7.10;98.00;;;;;;5057508;28;20047;-72
2023/01/03 14:19:01;;;;;;;43.63;22.10;;;7.10;97.90;;;;;;5074119;28;20436;-72
2023/01/03 14:21:46;;;;;;;38.75;22.23;;;7.20;97.90;;;;;;5074070;28;20040;-72